Time;durP1;ratioP1;P1;durP2;ratioP2;P2;SDS_P1;SDS_P2;PMS_P1;PMS_P2;Temp;Humidity;BMP_temperature;BMP_pressure;BME280_temperature;BME280_humidity;BME280_pressure;Samples;Min_cycle;Max_cycle;Signal;HPM_P1;HPM_P2
2023/09/10 00:01:43;;;;;;;16.88;6.05;;;;;;;17.73;85.82;100818.53;4916108;29;20092;-68
2023/09/10 00:04:46;;;;;;;16.73;5.60;;;;;;;17.77;85.38;100818.25;4916110;29;20423;-67
2023/09/10 00:07:49;;;;;;;20.05;6.38;;;;;;;17.73;85.69;100816.75;4916333;29;20139;-68
2023/09/10 00:10:55;;;;;;;19.85;6.90;;;;;;;17.77;85.29;100820.00;4915985;29;20480;-68
2023/09/10 00:13:58;;;;;;;15.15;5.70;;;;;;;17.74;85.14;100817.56;4916322;29;20054;-68
2023/09/10 00:17:02;;;;;;;22.05;6.35;;;;;;;17.70;85.21;100811.69;4913606;29;20471;-68
2023/09/10 00:20:07;;;;;;;15.68;5.72;;;;;;;17.55;85.99;100820.78;4919365;29;20134;-68
2023/09/10 00:23:10;;;;;;;18.00;5.45;;;;;;;17.55;85.85;100815.50;4919271;29;20063;-68
2023/09/10 00:26:13;;;;;;;22.60;6.28;;;;;;;17.54;86.07;100824.41;4919481;29;20458;-68
2023/09/10 00:29:21;;;;;;;14.48;5.88;;;;;;;17.55;85.94;100813.72;4907703;29;20172;-68
2023/09/10 00:32:24;;;;;;;17.52;6.78;;;;;;;17.54;85.81;100811.19;4907374;29;20059;-68
2023/09/10 00:35:27;;;;;;;11.57;6.20;;;;;;;17.48;86.08;100806.38;4907340;29;20422;-68
2023/09/10 00:38:31;;;;;;;16.73;6.85;;;;;;;17.47;86.13;100802.06;4919303;29;20087;-68
2023/09/10 00:41:34;;;;;;;17.50;6.15;;;;;;;17.51;85.71;100808.78;4907261;29;20083;-68
2023/09/10 00:44:38;;;;;;;17.55;6.28;;;;;;;17.47;85.67;100812.63;4919239;29;20050;-68
2023/09/10 00:47:45;;;;;;;13.32;5.90;;;;;;;17.44;85.63;100811.91;4918903;29;20083;-68
2023/09/10 00:50:48;;;;;;;13.35;6.05;;;;;;;17.42;85.62;100816.47;4918903;29;20107;-68
2023/09/10 00:53:54;;;;;;;18.83;6.18;;;;;;;17.40;85.54;100820.19;4919046;29;20083;-68
2023/09/10 00:57:00;;;;;;;15.88;6.32;;;;;;;17.36;85.56;100811.66;4901711;29;20046;-68
2023/09/10 01:00:09;;;;;;;15.00;5.43;;;;;;;17.34;85.71;100815.38;4907306;29;20059;-67
2023/09/10 01:03:14;;;;;;;22.95;7.20;;;;;;;17.31;85.48;100819.06;4915365;29;20082;-68
2023/09/10 01:06:18;;;;;;;17.65;6.00;;;;;;;17.20;85.95;100811.13;4906909;29;20070;-68
2023/09/10 01:09:22;;;;;;;19.58;5.88;;;;;;;17.18;86.55;100818.31;4918444;29;20426;-68
2023/09/10 01:12:41;;;;;;;11.68;5.22;;;;;;;17.18;86.36;100819.16;4918363;29;20103;-68
2023/09/10 01:15:56;;;;;;;16.02;5.55;;;;;;;17.17;85.76;100814.84;4906613;29;20117;-67
2023/09/10 01:19:07;;;;;;;18.48;6.50;;;;;;;17.17;85.94;100811.38;4918126;29;20084;-68
2023/09/10 01:22:26;;;;;;;13.77;5.63;;;;;;;17.07;86.21;100811.22;4918321;29;20123;-68
2023/09/10 01:25:31;;;;;;;16.00;5.60;;;;;;;17.13;86.23;100807.25;4918381;29;20046;-68
2023/09/10 01:28:35;;;;;;;13.63;5.38;;;;;;;17.11;86.43;100806.53;4906622;29;20082;-68
2023/09/10 01:31:40;;;;;;;16.58;5.90;;;;;;;17.06;86.37;100803.38;4918067;29;20131;-68
2023/09/10 01:34:51;;;;;;;16.58;5.80;;;;;;;17.07;86.31;100803.28;4906535;29;20058;-67
2023/09/10 01:37:59;;;;;;;16.80;6.05;;;;;;;17.05;85.87;100796.44;4917875;29;20565;-67
2023/09/10 01:41:06;;;;;;;14.00;6.28;;;;;;;17.03;86.04;100804.47;4913272;29;20108;-68
2023/09/10 01:44:10;;;;;;;15.52;5.25;;;;;;;16.97;86.36;100804.91;4906116;29;20047;-68
2023/09/10 01:47:13;;;;;;;13.20;5.22;;;;;;;16.88;86.89;100806.47;4917799;29;20556;-68
2023/09/10 01:50:17;;;;;;;15.73;6.00;;;;;;;16.91;86.63;100814.16;4917984;29;20422;-68
2023/09/10 01:53:20;;;;;;;15.13;5.63;;;;;;;16.91;86.80;100810.66;4917687;29;20051;-67
2023/09/10 01:56:24;;;;;;;15.55;6.70;;;;;;;16.87;86.87;100812.69;4917516;29;20099;-67
2023/09/10 01:59:27;;;;;;;13.60;5.53;;;;;;;16.87;86.30;100815.31;4906081;29;20407;-68
2023/09/10 02:02:30;;;;;;;11.18;4.93;;;;;;;16.76;86.90;100811.81;4906000;29;20067;-68
2023/09/10 02:05:34;;;;;;;21.55;5.43;;;;;;;16.81;86.69;100810.50;4906008;29;20417;-68
2023/09/10 02:08:37;;;;;;;17.63;5.80;;;;;;;16.81;86.93;100805.22;4905720;29;20043;-67
2023/09/10 02:11:42;;;;;;;12.43;5.05;;;;;;;16.75;87.20;100810.94;4895014;29;20070;-67
2023/09/10 02:14:48;;;;;;;21.50;6.90;;;;;;;16.76;87.40;100801.25;4917257;29;20135;-67
2023/09/10 02:17:53;;;;;;;12.27;5.90;;;;;;;16.79;87.50;100812.41;4905424;29;20071;-67
2023/09/10 02:20:56;;;;;;;16.13;6.97;;;;;;;16.71;87.92;100812.09;4905503;29;20043;-68
2023/09/10 02:24:00;;;;;;;20.60;6.97;;;;;;;16.74;87.95;100814.50;4905509;29;20103;-68
2023/09/10 02:27:03;;;;;;;20.52;6.90;;;;;;;16.73;88.08;100810.19;4912608;29;20474;-68
2023/09/10 02:30:07;;;;;;;27.27;7.40;;;;;;;16.75;87.89;100816.22;4905253;29;20103;-68
2023/09/10 02:33:10;;;;;;;26.88;8.25;;;;;;;16.71;88.41;100820.03;4901729;29;20631;-68
2023/09/10 02:36:14;;;;;;;25.73;6.95;;;;;;;16.70;88.58;100823.63;4916975;29;20083;-68
2023/09/10 02:39:17;;;;;;;24.98;7.13;;;;;;;16.68;88.44;100809.69;4916573;29;20558;-67
2023/09/10 02:42:20;;;;;;;23.67;7.55;;;;;;;16.58;89.41;100819.22;4905172;29;20055;-68
2023/09/10 02:45:24;;;;;;;31.80;8.25;;;;;;;16.57;89.49;100817.56;4917101;29;20133;-68
2023/09/10 02:48:27;;;;;;;23.55;8.27;;;;;;;16.61;89.24;100819.00;4905067;29;20127;-68
2023/09/10 02:51:30;;;;;;;22.10;8.20;;;;;;;16.64;89.30;100813.50;4916783;29;20047;-68
2023/09/10 02:54:35;;;;;;;18.80;6.80;;;;;;;16.69;88.78;100821.94;4916948;29;20067;-68
2023/09/10 02:57:38;;;;;;;18.20;6.30;;;;;;;16.65;88.70;100823.94;4916615;29;20096;-67
2023/09/10 03:00:41;;;;;;;12.73;5.70;;;;;;;16.59;88.80;100815.63;4916647;29;20051;-68
2023/09/10 03:03:48;;;;;;;17.75;5.60;;;;;;;16.60;88.16;100819.97;4905085;29;20059;-68
2023/09/10 03:06:52;;;;;;;10.50;5.15;;;;;;;16.50;88.97;100823.28;4904828;29;20039;-68
2023/09/10 03:09:55;;;;;;;20.35;6.15;;;;;;;16.58;88.71;100824.50;4904734;29;20039;-68
2023/09/10 03:12:58;;;;;;;25.48;5.93;;;;;;;16.60;89.09;100817.34;4916544;29;20115;-67
2023/09/10 03:16:02;;;;;;;23.15;8.50;;;;;;;16.62;89.54;100825.97;4905008;29;20059;-67
2023/09/10 03:19:07;;;;;;;26.15;8.48;;;;;;;16.58;90.32;100821.88;4904574;29;20537;-67
2023/09/10 03:22:11;;;;;;;23.63;9.80;;;;;;;16.58;90.69;100830.63;4916497;29;20096;-67
2023/09/10 03:25:14;;;;;;;22.63;8.55;;;;;;;16.60;90.55;100825.25;4894065;29;20051;-67
2023/09/10 03:28:18;;;;;;;22.77;8.65;;;;;;;16.63;90.41;100828.50;4904716;29;20059;-68
2023/09/10 03:31:21;;;;;;;20.20;8.55;;;;;;;16.41;91.85;100823.94;4916298;29;20581;-67
2023/09/10 03:34:25;;;;;;;23.40;9.32;;;;;;;16.43;91.97;100829.97;4904902;29;20051;-67
2023/09/10 03:37:28;;;;;;;20.27;7.63;;;;;;;16.41;91.94;100812.53;4904464;29;20540;-67
2023/09/10 03:40:31;;;;;;;20.95;8.23;;;;;;;16.39;91.97;100817.91;4916221;29;20059;-67
2023/09/10 03:43:35;;;;;;;14.40;7.53;;;;;;;16.38;92.11;100821.53;4904505;29;20051;-67
2023/09/10 03:46:39;;;;;;;20.45;8.23;;;;;;;16.34;92.64;100822.69;4904552;29;20530;-67
2023/09/10 03:49:42;;;;;;;17.58;6.90;;;;;;;16.35;92.12;100815.63;4917005;29;20043;-68
2023/09/10 03:52:45;;;;;;;16.10;6.45;;;;;;;16.38;91.42;100818.88;4919865;29;20055;-67
2023/09/10 03:55:52;;;;;;;14.82;6.28;;;;;;;16.40;90.78;100816.97;4919711;29;20067;-67
2023/09/10 03:58:55;;;;;;;16.60;6.13;;;;;;;16.35;91.13;100813.81;4919783;29;20127;-67
2023/09/10 04:01:59;;;;;;;14.18;5.88;;;;;;;16.39;90.97;100825.00;4919745;29;20083;-68
2023/09/10 04:05:03;;;;;;;19.25;5.93;;;;;;;16.43;90.40;100827.31;4907949;29;20462;-68
2023/09/10 04:08:07;;;;;;;18.42;6.68;;;;;;;16.45;90.16;100820.13;4903917;29;20073;-68
2023/09/10 04:11:10;;;;;;;15.65;6.20;;;;;;;16.42;90.05;100820.34;4915800;29;20051;-68
2023/09/10 04:14:13;;;;;;;11.02;5.28;;;;;;;16.40;89.83;100821.41;4907777;29;20055;-68
2023/09/10 04:17:17;;;;;;;16.45;6.32;;;;;;;16.38;90.07;100826.78;4919245;29;20471;-68
2023/09/10 04:20:21;;;;;;;13.43;5.70;;;;;;;16.30;90.35;100831.75;4919386;29;20056;-68
2023/09/10 04:23:24;;;;;;;12.85;6.05;;;;;;;16.28;90.45;100837.16;4907555;29;20047;-68
2023/09/10 04:26:28;;;;;;;20.20;7.57;;;;;;;16.31;90.95;100838.75;4907776;29;20046;-68
2023/09/10 04:29:31;;;;;;;18.38;7.10;;;;;;;16.27;90.74;100837.25;4907602;29;20059;-68
2023/09/10 04:32:35;;;;;;;17.10;6.18;;;;;;;16.23;90.60;100839.28;4907490;29;20043;-67
2023/09/10 04:35:49;;;;;;;14.57;5.82;;;;;;;16.15;91.22;100838.16;4907405;29;20055;-68
2023/09/10 04:38:52;;;;;;;16.58;5.78;;;;;;;16.15;91.26;100846.06;4907336;29;20100;-67
2023/09/10 04:41:56;;;;;;;15.43;6.53;;;;;;;16.22;91.65;100844.69;4918976;29;20058;-67
2023/09/10 04:45:00;;;;;;;14.15;7.63;;;;;;;16.20;91.88;100849.22;4902258;29;20046;-67
2023/09/10 04:48:04;;;;;;;26.48;8.32;;;;;;;16.14;92.22;100847.84;4918850;29;20047;-68
2023/09/10 04:51:08;;;;;;;15.57;7.57;;;;;;;16.14;92.69;100857.56;4907166;29;20059;-68
2023/09/10 04:54:13;;;;;;;12.77;7.10;;;;;;;16.11;92.79;100857.75;4903764;29;20051;-67
2023/09/10 04:57:17;;;;;;;14.40;7.32;;;;;;;16.15;92.53;100860.09;4917710;29;20590;-67
2023/09/10 05:00:21;;;;;;;13.90;7.53;;;;;;;16.10;92.53;100856.09;4904393;29;20055;-67
2023/09/10 05:03:24;;;;;;;13.95;7.60;;;;;;;16.12;92.50;100862.94;4904873;29;20489;-67
2023/09/10 05:06:28;;;;;;;12.10;7.07;;;;;;;15.99;93.81;100856.84;4904870;29;20112;-67
2023/09/10 05:09:31;;;;;;;10.38;6.70;;;;;;;15.95;94.24;100865.91;4916981;29;20055;-68
2023/09/10 05:12:34;;;;;;;13.48;6.95;;;;;;;15.93;93.53;100868.66;4904518;29;20082;-68
2023/09/10 05:15:38;;;;;;;10.52;5.85;;;;;;;15.93;93.85;100866.03;4905102;29;20423;-68
2023/09/10 05:18:42;;;;;;;11.48;6.53;;;;;;;16.00;93.25;100867.28;4904474;29;20252;-67
2023/09/10 05:21:46;;;;;;;11.63;7.05;;;;;;;15.94;93.48;100865.06;4904918;29;20131;-67
2023/09/10 05:24:49;;;;;;;13.48;6.25;;;;;;;15.99;93.29;100865.59;4904638;29;20043;-67
2023/09/10 05:28:05;;;;;;;12.85;6.78;;;;;;;16.00;93.42;100866.44;4904914;29;20099;-68
2023/09/10 05:31:19;;;;;;;14.70;6.28;;;;;;;16.00;93.33;100875.19;4904713;29;20039;-68
2023/09/10 05:34:23;;;;;;;8.68;5.60;;;;;;;16.03;93.74;100874.97;4915466;29;20043;-68
2023/09/10 05:37:26;;;;;;;9.02;5.20;;;;;;;16.15;92.86;100875.09;4915550;29;20066;-68
2023/09/10 05:41:20;;;;;;;11.30;5.63;;;;;;;16.16;92.22;100877.59;4904246;29;20047;-68
2023/09/10 05:44:24;;;;;;;8.45;4.88;;;;;;;16.10;93.05;100878.03;4914075;29;20087;-68
2023/09/10 05:47:28;;;;;;;9.43;5.63;;;;;;;16.15;93.22;100877.72;4902311;29;20151;-68
2023/09/10 05:50:31;;;;;;;10.32;5.40;;;;;;;16.08;93.48;100879.09;4902436;29;20709;-68
2023/09/10 05:53:36;;;;;;;11.30;5.40;;;;;;;16.07;93.99;100866.84;4903132;29;20051;-68
2023/09/10 05:56:40;;;;;;;8.43;5.47;;;;;;;16.07;93.61;100872.13;4903223;29;20059;-68
2023/09/10 05:59:43;;;;;;;8.50;4.95;;;;;;;16.07;93.97;100877.41;4903974;29;20051;-68
2023/09/10 06:02:48;;;;;;;8.63;5.78;;;;;;;16.13;94.05;100882.25;4915882;29;20466;-68
2023/09/10 06:05:52;;;;;;;12.27;7.43;;;;;;;16.18;94.32;100880.16;4916215;29;20531;-67
2023/09/10 06:08:59;;;;;;;8.18;6.25;;;;;;;16.18;93.90;100880.16;4897372;29;20090;-68
2023/09/10 06:12:02;;;;;;;12.85;6.78;;;;;;;16.06;95.28;100887.13;4896776;29;20223;-68
2023/09/10 06:15:07;;;;;;;9.10;6.22;;;;;;;16.20;94.67;100883.50;4884555;29;20509;-68
2023/09/10 06:18:11;;;;;;;10.25;6.03;;;;;;;16.31;93.90;100888.88;4881244;29;20138;-68
2023/09/10 06:21:14;;;;;;;9.68;5.80;;;;;;;16.41;93.13;100887.28;4896572;29;20052;-67
2023/09/10 06:24:18;;;;;;;7.25;4.63;;;;;;;16.47;93.22;100892.13;4884841;29;20059;-67
2023/09/10 06:27:21;;;;;;;8.55;5.30;;;;;;;16.51;92.81;100892.75;4896775;29;20113;-67
2023/09/10 06:30:24;;;;;;;9.57;5.95;;;;;;;16.47;93.22;100889.47;4896535;29;20051;-67
2023/09/10 06:33:27;;;;;;;8.13;5.40;;;;;;;16.46;93.42;100892.22;4896521;29;20067;-67
2023/09/10 06:36:31;;;;;;;7.53;5.13;;;;;;;16.50;93.23;100891.91;4896162;29;20047;-67
2023/09/10 06:39:38;;;;;;;9.57;5.70;;;;;;;16.49;93.04;100898.13;4873935;29;20060;-67
2023/09/10 06:42:42;;;;;;;9.73;5.93;;;;;;;16.45;93.61;100895.81;4884837;29;20083;-68
2023/09/10 06:45:54;;;;;;;7.57;5.88;;;;;;;16.39;93.78;100899.72;4884352;29;20048;-67
2023/09/10 06:48:57;;;;;;;10.40;6.40;;;;;;;16.51;93.57;100901.50;4896128;29;20116;-66
2023/09/10 06:52:00;;;;;;;10.88;5.60;;;;;;;16.49;94.12;100897.28;4884452;29;20107;-68
2023/09/10 06:55:04;;;;;;;7.13;5.45;;;;;;;16.52;94.20;100899.69;4896048;29;20079;-68
2023/09/10 06:58:08;;;;;;;7.30;4.93;;;;;;;16.55;93.98;100896.84;4892796;29;20139;-67
2023/09/10 07:01:12;;;;;;;6.97;3.92;;;;;;;16.56;93.68;100898.56;4896286;29;20132;-67
2023/09/10 07:04:23;;;;;;;5.60;4.05;;;;;;;16.63;93.80;100896.31;4893084;29;20460;-67
2023/09/10 07:07:27;;;;;;;7.47;4.13;;;;;;;16.65;93.81;100904.94;4895901;29;20506;-67
2023/09/10 07:10:30;;;;;;;8.85;3.80;;;;;;;16.71;93.95;100904.50;4895933;29;20051;-67
2023/09/10 07:13:36;;;;;;;8.10;3.90;;;;;;;16.82;93.40;100901.16;4895642;29;20051;-67
2023/09/10 07:16:41;;;;;;;6.30;3.40;;;;;;;16.90;92.97;100904.91;4895978;29;20538;-67
2023/09/10 07:19:44;;;;;;;7.47;3.40;;;;;;;17.02;93.00;100904.97;4895892;29;20418;-66
2023/09/10 07:22:49;;;;;;;7.00;3.60;;;;;;;17.10;92.46;100906.09;4895897;29;20515;-67
2023/09/10 07:25:55;;;;;;;5.78;4.07;;;;;;;17.17;92.52;100906.50;4898833;29;20079;-67
2023/09/10 07:28:58;;;;;;;8.35;4.07;;;;;;;17.28;91.58;100903.88;4899644;29;20398;-67
2023/09/10 07:32:02;;;;;;;7.55;4.03;;;;;;;17.37;91.48;100900.56;4899674;29;20052;-68
2023/09/10 07:35:05;;;;;;;11.68;4.50;;;;;;;17.44;91.45;100903.59;4899523;29;20139;-66
2023/09/10 07:38:09;;;;;;;7.88;4.38;;;;;;;17.58;91.51;100899.88;4899450;29;20136;-65
2023/09/10 07:41:12;;;;;;;7.03;3.75;;;;;;;17.70;92.39;100898.13;4899355;29;20215;-66
2023/09/10 07:44:15;;;;;;;5.95;4.00;;;;;;;17.81;92.04;100888.44;4896763;29;20108;-66
2023/09/10 07:47:20;;;;;;;11.13;4.55;;;;;;;17.96;92.21;100893.50;4899433;29;20139;-66
2023/09/10 07:50:24;;;;;;;7.72;4.45;;;;;;;17.92;94.01;100886.78;4898590;29;20060;-67
2023/09/10 07:53:29;;;;;;;9.40;4.25;;;;;;;18.03;93.11;100889.44;4899487;29;20088;-67
2023/09/10 07:56:41;;;;;;;10.70;4.78;;;;;;;18.20;94.51;100896.06;4899440;29;20055;-70
2023/09/10 07:59:45;;;;;;;19.98;6.25;;;;;;;18.30;93.31;100900.50;4899462;29;20427;-71
2023/09/10 08:02:48;;;;;;;11.80;6.75;;;;;;;18.35;93.19;100895.69;4899183;29;20052;-70
2023/09/10 08:05:52;;;;;;;13.65;5.13;;;;;;;18.43;93.80;100896.88;4899201;29;20040;-70
2023/09/10 08:08:56;;;;;;;18.02;5.20;;;;;;;18.61;93.59;100894.59;4898921;29;20047;-71
2023/09/10 08:11:59;;;;;;;12.65;5.22;;;;;;;18.75;92.94;100889.88;4887211;29;20054;-70
2023/09/10 08:15:02;;;;;;;14.10;5.82;;;;;;;18.91;92.65;100885.97;4894315;29;20047;-72
2023/09/10 08:18:31;;;;;;;13.05;5.32;;;;;;;19.12;92.63;100889.53;4899133;29;20203;-71
2023/09/10 08:21:38;;;;;;;9.45;4.38;;;;;;;19.26;92.96;100881.25;4899249;29;20059;-71
2023/09/10 08:24:46;;;;;;;8.50;4.72;;;;;;;19.43;92.60;100884.31;4899178;29;20055;-71
2023/09/10 08:28:03;;;;;;;15.90;5.70;;;;;;;19.58;93.76;100875.06;4899607;29;20471;-71
2023/09/10 08:31:14;;;;;;;14.77;5.72;;;;;;;19.70;93.18;100874.06;4898823;29;20068;-72
2023/09/10 08:34:19;;;;;;;14.05;5.55;;;;;;;19.89;91.96;100873.34;4909509;29;20084;-70
2023/09/10 08:37:23;;;;;;;11.25;5.80;;;;;;;19.99;90.19;100873.38;4916577;29;20173;-71
2023/09/10 08:40:29;;;;;;;13.98;6.22;;;;;;;20.11;89.69;100867.00;4918010;29;20525;-70
2023/09/10 08:44:07;;;;;;;15.77;6.28;;;;;;;20.31;89.43;100867.91;4917666;29;20070;-71
2023/09/10 08:47:17;;;;;;;15.68;7.55;;;;;;;20.49;88.16;100864.63;4912315;29;20058;-72
2023/09/10 08:50:22;;;;;;;15.23;7.03;;;;;;;20.60;88.02;100868.03;4917666;29;20111;-71
2023/09/10 08:53:30;;;;;;;20.75;8.05;;;;;;;20.79;86.77;100871.69;4904888;29;20058;-71
2023/09/10 08:56:35;;;;;;;14.00;5.93;;;;;;;20.89;85.46;100867.22;4916337;29;20434;-72
2023/09/10 08:59:40;;;;;;;15.25;7.05;;;;;;;20.98;84.34;100860.25;4916817;29;20411;-71
2023/09/10 09:02:47;;;;;;;11.85;6.57;;;;;;;21.00;83.77;100859.13;4900164;29;20525;-73
2023/09/10 09:05:54;;;;;;;16.13;6.93;;;;;;;21.11;83.68;100856.31;4914267;29;20107;-70
2023/09/10 09:09:07;;;;;;;16.17;7.18;;;;;;;21.37;84.97;100861.09;4912517;29;20414;-71
2023/09/10 09:12:15;;;;;;;22.52;7.55;;;;;;;21.57;84.65;100860.09;4914784;29;20079;-74
2023/09/10 09:15:20;;;;;;;28.38;9.98;;;;;;;21.79;84.42;100856.25;4913071;29;20127;-73
2023/09/10 09:18:23;;;;;;;22.55;7.65;;;;;;;21.95;81.97;100850.31;4916238;29;20471;-79
2023/09/10 09:21:29;;;;;;;16.52;8.40;;;;;;;21.97;81.58;100847.50;4916039;29;20131;-73
2023/09/10 09:24:40;;;;;;;23.95;9.00;;;;;;;22.11;81.79;100846.16;4914863;29;20123;-72
2023/09/10 09:27:44;;;;;;;27.65;9.30;;;;;;;22.14;80.98;100846.72;4916431;29;20095;-76
2023/09/10 09:30:51;;;;;;;27.10;7.78;;;;;;;22.22;79.85;100840.69;4916861;29;20135;-85
2023/09/10 09:33:55;;;;;;;20.80;8.73;;;;;;;22.29;79.30;100831.13;4916377;29;20379;-79
2023/09/10 09:37:00;;;;;;;20.05;7.13;;;;;;;22.32;79.57;100830.81;4892739;29;20055;-72
2023/09/10 09:40:04;;;;;;;18.23;9.13;;;;;;;22.51;80.14;100825.38;4901460;29;20566;-72
2023/09/10 09:43:10;;;;;;;17.98;6.10;;;;;;;22.58;80.38;100819.44;4913705;29;20059;-79
2023/09/10 09:46:18;;;;;;;19.83;6.60;;;;;;;22.73;79.52;100821.44;4902670;29;20080;-81
2023/09/10 09:49:41;;;;;;;16.77;7.15;;;;;;;22.98;78.52;100811.88;4922079;29;20586;-69
2023/09/10 09:52:54;;;;;;;20.42;6.35;;;;;;;23.17;77.58;100804.69;4915417;29;20405;-83
2023/09/10 09:56:03;;;;;;;16.75;5.43;;;;;;;23.20;78.08;100809.72;4914831;29;20167;-82
2023/09/10 09:59:15;;;;;;;14.77;6.07;;;;;;;23.27;77.44;100799.25;4915424;29;20042;-81
2023/09/10 10:02:19;;;;;;;21.27;6.22;;;;;;;23.31;76.67;100788.09;4914569;29;20471;-74
2023/09/10 10:05:27;;;;;;;21.15;6.38;;;;;;;23.48;75.68;100788.19;4914684;29;20047;-72
2023/09/10 10:08:34;;;;;;;20.65;6.75;;;;;;;23.55;75.46;100789.25;4913994;29;20147;-72
2023/09/10 10:11:41;;;;;;;19.52;5.55;;;;;;;23.74;74.12;100772.19;4913832;29;20047;-68
2023/09/10 10:14:45;;;;;;;22.35;6.40;;;;;;;23.81;74.39;100778.59;4906529;29;20135;-76
2023/09/10 10:17:49;;;;;;;18.23;6.13;;;;;;;23.99;70.05;100773.97;4913726;29;20050;-68
2023/09/10 10:20:52;;;;;;;18.65;5.72;;;;;;;24.08;71.88;100774.84;4915663;29;20099;-75
2023/09/10 10:23:56;;;;;;;17.30;6.22;;;;;;;24.06;71.30;100767.00;4909401;29;20524;-70
2023/09/10 10:27:01;;;;;;;25.77;6.40;;;;;;;24.08;70.22;100762.31;4915238;29;20035;-70
2023/09/10 10:30:05;;;;;;;20.80;6.30;;;;;;;24.10;71.30;100762.16;4913467;29;20127;-73
2023/09/10 10:33:12;;;;;;;17.70;5.85;;;;;;;24.08;71.02;100761.47;4915660;29;20533;-73
2023/09/10 10:36:42;;;;;;;15.45;5.32;;;;;;;24.13;70.86;100751.97;4915373;29;20134;-74
2023/09/10 10:40:08;;;;;;;19.98;5.53;;;;;;;24.25;70.67;100751.66;4915642;29;20139;-72
2023/09/10 10:43:25;;;;;;;18.15;5.35;;;;;;;24.28;72.06;100746.84;4916119;29;20533;-70
2023/09/10 10:46:36;;;;;;;18.85;5.72;;;;;;;24.46;72.49;100743.22;4915360;29;20047;-71
2023/09/10 10:50:09;;;;;;;15.52;4.35;;;;;;;24.74;61.76;100741.06;4915466;29;20229;-73
2023/09/10 10:53:20;;;;;;;15.05;4.53;;;;;;;24.79;66.49;100734.22;4914919;29;20102;-66
2023/09/10 10:56:25;;;;;;;8.48;4.55;;;;;;;24.71;66.79;100734.22;4896490;29;20086;-74
2023/09/10 10:59:33;;;;;;;11.52;4.10;;;;;;;24.90;65.17;100729.53;4895878;29;20538;-73
2023/09/10 11:02:37;;;;;;;14.73;4.18;;;;;;;24.93;63.84;100734.56;4896282;29;20464;-76
2023/09/10 11:05:57;;;;;;;21.63;4.30;;;;;;;24.97;61.51;100726.00;4884752;29;20515;-73
2023/09/10 11:09:37;;;;;;;13.05;3.78;;;;;;;25.17;63.08;100726.50;4896258;29;20043;-72
2023/09/10 11:13:07;;;;;;;12.65;4.38;;;;;;;25.62;61.16;100725.06;4896094;29;20418;-72
2023/09/10 11:16:12;;;;;;;11.05;4.15;;;;;;;25.63;61.55;100716.00;4896363;29;20091;-70
2023/09/10 11:19:51;;;;;;;17.85;4.90;;;;;;;25.53;60.67;100715.38;4897541;29;20053;-76
2023/09/10 11:23:09;;;;;;;15.65;4.97;;;;;;;25.48;63.51;100717.72;4895893;29;20091;-73
2023/09/10 11:26:21;;;;;;;17.90;6.35;;;;;;;25.32;62.55;100713.25;4908954;29;20047;-75
2023/09/10 11:29:28;;;;;;;20.00;5.63;;;;;;;25.42;61.21;100710.38;4913969;29;20091;-72
2023/09/10 11:32:36;;;;;;;26.35;10.02;;;;;;;25.73;61.40;100708.59;4912120;29;20390;-72
2023/09/10 11:35:53;;;;;;;26.33;7.30;;;;;;;25.89;58.15;100712.22;4913197;29;20356;-67
2023/09/10 11:39:06;;;;;;;11.98;5.03;;;;;;;26.23;60.17;100700.28;4913156;29;20463;-71
2023/09/10 11:42:13;;;;;;;14.32;5.10;;;;;;;26.39;57.61;100700.19;4912888;29;20454;-70
2023/09/10 11:45:23;;;;;;;19.80;5.05;;;;;;;26.26;56.83;100705.28;4912635;29;20566;-69
2023/09/10 11:48:29;;;;;;;17.48;5.15;;;;;;;26.32;58.05;100701.91;4913834;29;20563;-69
2023/09/10 11:51:50;;;;;;;138.82;36.03;;;;;;;26.47;58.28;100702.81;4912367;29;20051;-68
2023/09/10 11:54:54;;;;;;;26.20;6.95;;;;;;;26.65;54.34;100706.03;4912508;29;20084;-70
2023/09/10 11:58:00;;;;;;;28.23;7.38;;;;;;;26.66;58.27;100706.88;4892076;29;20542;-70
2023/09/10 12:01:04;;;;;;;22.27;6.60;;;;;;;26.71;56.24;100700.94;4908766;29;20051;-72
2023/09/10 12:04:16;;;;;;;16.55;4.45;;;;;;;26.56;56.46;100699.06;4911702;29;20485;-72
2023/09/10 12:07:26;;;;;;;30.13;8.05;;;;;;;26.60;54.59;100697.69;4913377;29;20111;-69
2023/09/10 12:10:32;;;;;;;18.05;5.32;;;;;;;26.95;52.91;100689.16;4911312;29;20047;-71
2023/09/10 12:13:47;;;;;;;20.35;5.90;;;;;;;27.20;55.67;100697.84;4906876;29;20051;-72
2023/09/10 12:16:53;;;;;;;14.73;4.05;;;;;;;27.48;52.02;100685.41;4915030;29;20103;-69
2023/09/10 12:19:59;;;;;;;16.02;5.28;;;;;;;27.74;51.83;100690.28;4912581;29;20107;-69
2023/09/10 12:23:04;;;;;;;11.40;4.38;;;;;;;27.86;52.86;100685.28;4916614;29;20051;-68
2023/09/10 12:26:07;;;;;;;9.25;3.50;;;;;;;27.89;51.95;100684.91;4916904;29;20135;-68
2023/09/10 12:29:12;;;;;;;17.42;4.45;;;;;;;28.20;48.35;100678.41;4914785;29;20047;-68
2023/09/10 12:32:15;;;;;;;11.38;3.38;;;;;;;28.34;48.17;100674.81;4915405;29;20039;-67
2023/09/10 12:35:20;;;;;;;17.88;3.95;;;;;;;28.54;47.76;100672.34;4905276;29;20565;-70
2023/09/10 12:38:24;;;;;;;9.85;4.13;;;;;;;28.73;48.36;100685.13;4916348;29;20100;-69
2023/09/10 12:41:27;;;;;;;8.18;3.00;;;;;;;29.01;45.17;100675.41;4904621;29;20043;-70
2023/09/10 12:44:31;;;;;;;15.25;3.60;;;;;;;29.47;45.22;100675.66;4914564;29;20406;-70
2023/09/10 12:47:35;;;;;;;9.88;3.80;;;;;;;29.89;43.80;100674.59;4917667;29;20456;-69
2023/09/10 12:50:38;;;;;;;9.00;3.17;;;;;;;30.16;43.02;100669.25;4917461;29;20051;-69
2023/09/10 12:53:42;;;;;;;11.52;3.10;;;;;;;30.68;41.73;100669.53;4917477;29;20139;-71
2023/09/10 12:56:51;;;;;;;9.20;2.78;;;;;;;31.25;40.73;100658.00;4917009;29;20047;-70
2023/09/10 12:59:54;;;;;;;10.95;3.67;;;;;;;31.24;39.87;100655.53;4905568;29;20063;-70
2023/09/10 13:02:58;;;;;;;10.23;3.85;;;;;;;31.68;39.27;100652.03;4917239;29;20111;-69
2023/09/10 13:07:01;;;;;;;15.00;4.05;;;;;;;32.08;40.30;100654.53;4917370;29;20436;-69
2023/09/10 13:10:10;;;;;;;8.20;3.38;;;;;;;32.54;38.64;100645.22;4914721;29;20071;-70
2023/09/10 13:13:16;;;;;;;12.20;3.60;;;;;;;32.87;37.40;100644.94;4917064;29;20070;-69
2023/09/10 13:16:20;;;;;;;13.02;3.85;;;;;;;33.44;37.73;100638.44;4916876;29;20096;-70
2023/09/10 13:19:23;;;;;;;8.98;3.45;;;;;;;33.87;35.36;100640.22;4916857;29;20116;-70
2023/09/10 13:22:30;;;;;;;11.60;4.22;;;;;;;34.50;34.52;100639.66;4916870;29;20411;-70
2023/09/10 13:25:34;;;;;;;14.90;3.78;;;;;;;35.44;31.30;100625.94;4915466;29;20096;-71
2023/09/10 13:28:42;;;;;;;9.65;3.80;;;;;;;36.81;29.40;100623.13;4916305;29;20151;-71
2023/09/10 13:31:46;;;;;;;12.63;3.67;;;;;;;39.51;26.25;100624.63;4914006;29;20039;-71
2023/09/10 13:34:50;;;;;;;11.13;3.38;;;;;;;42.67;22.41;100625.28;4914183;29;20079;-71
2023/09/10 13:37:56;;;;;;;11.85;4.22;;;;;;;44.21;20.86;100623.94;4914337;29;20047;-71
2023/09/10 13:41:04;;;;;;;15.00;3.78;;;;;;;45.48;19.49;100611.50;4915027;29;20074;-72
2023/09/10 13:44:21;;;;;;;13.60;3.30;;;;;;;46.48;18.59;100602.06;4915435;29;20043;-71
2023/09/10 13:47:24;;;;;;;10.77;3.50;;;;;;;45.75;19.49;100605.03;4913867;29;20062;-72
2023/09/10 13:50:27;;;;;;;11.98;2.92;;;;;;;47.43;17.67;100601.47;4916500;29;20090;-73
2023/09/10 13:53:31;;;;;;;8.65;3.47;;;;;;;47.92;16.37;100591.78;4915934;29;20514;-74
2023/09/10 13:56:35;;;;;;;15.18;3.92;;;;;;;48.24;16.69;100586.00;4915946;29;20067;-72
2023/09/10 13:59:38;;;;;;;12.50;3.25;;;;;;;48.34;16.29;100585.63;4916372;29;20055;-72
2023/09/10 14:02:41;;;;;;;9.15;3.50;;;;;;;47.53;17.40;100579.78;4916038;29;20103;-72
2023/09/10 14:05:47;;;;;;;11.98;3.22;;;;;;;48.43;15.75;100575.31;4904351;29;20119;-70
2023/09/10 14:08:55;;;;;;;8.57;3.10;;;;;;;48.92;15.58;100572.97;4915868;29;20091;-70
2023/09/10 14:11:58;;;;;;;11.93;3.70;;;;;;;48.28;15.33;100573.09;4915682;29;20131;-72
2023/09/10 14:15:02;;;;;;;9.15;3.30;;;;;;;47.90;16.02;100571.09;4915687;29;20054;-71
2023/09/10 14:18:06;;;;;;;12.05;3.45;;;;;;;47.74;16.06;100557.78;4915651;29;20126;-71
2023/09/10 14:21:10;;;;;;;12.43;4.20;;;;;;;46.97;16.30;100572.41;4915809;29;20071;-69